Time,TemperatureF,DewpointF,PressureIn,WindDirection,WindDirectionDegrees,WindSpeedMPH,WindSpeedGustMPH,Humidity,HourlyPrecipIn,Conditions,Clouds,dailyrainin,SoftwareType,DateUTC
2013-09-16 00:20:00,63.2,61.7,30.10,SW,218,4.6,10.8,95,0.00,,BKN250,0.00,VWS V14.00,2013-09-16 04:20:00,
2013-09-16 00:39:00,63.0,61.1,30.09,South,190,3.2,10.6,93,0.00,,BKN250,0.00,VWS V14.00,2013-09-16 04:39:00,
2013-09-16 01:00:00,62.8,60.8,30.09,SE,131,5.2,10.5,93,0.00,,BKN250,0.00,VWS V14.00,2013-09-16 05:00:00,
2013-09-16 01:20:00,63.6,61.7,30.09,South,184,3.1,8.0,94,0.00,,BKN250,0.00,VWS V14.00,2013-09-16 05:20:00,
2013-09-16 01:39:00,62.9,61.3,30.09,SSE,158,5.4,8.2,94,0.00,,BKN250,0.00,VWS V14.00,2013-09-16 05:39:00,
2013-09-16 02:00:00,64.2,62.8,30.09,SW,214,7.0,8.3,95,0.00,,BKN250,0.00,VWS V14.00,2013-09-16 06:00:00,
2013-09-16 02:20:00,62.5,61.3,30.08,WSW,243,0.0,8.7,96,0.00,,BKN250,0.00,VWS V14.00,2013-09-16 06:20:00,
2013-09-16 02:39:00,62.4,61.3,30.07,SSW,198,6.8,10.9,96,0.00,,BKN250,0.00,VWS V14.00,2013-09-16 06:39:00,
2013-09-16 03:00:00,62.3,61.2,30.07,SSW,207,0.0,9.3,96,0.00,,BKN250,0.00,VWS V14.00,2013-09-16 07:00:00,
2013-09-16 03:20:00,61.8,60.7,30.06,South,179,0.0,8.6,96,0.00,,BKN250,0.00,VWS V14.00,2013-09-16 07:20:00,
2013-09-16 03:39:00,61.5,60.4,30.06,SSW,211,2.6,9.9,96,0.00,,BKN250,0.00,VWS V14.00,2013-09-16 07:39:00,
2013-09-16 04:00:00,61.9,60.9,30.06,WSW,250,0.0,9.1,96,0.00,,BKN250,0.00,VWS V14.00,2013-09-16 08:00:00,
2013-09-16 04:20:00,61.6,60.6,30.05,SW,224,6.6,9.1,97,0.00,,BKN250,0.00,VWS V14.00,2013-09-16 08:20:00,
2013-09-16 04:40:00,61.5,60.7,30.05,SW,229,0.0,8.1,97,0.00,,BKN250,0.00,VWS V14.00,2013-09-16 08:40:00,
2013-09-16 05:00:00,61.4,60.9,30.05,ESE,115,0.0,7.6,98,0.00,,BKN250,0.00,VWS V14.00,2013-09-16 09:00:00,
2013-09-16 05:20:00,60.9,60.6,30.04,South,191,4.6,6.2,99,0.00,,BKN250,0.00,VWS V14.00,2013-09-16 09:20:00,
2013-09-16 05:40:00,60.9,60.8,30.04,SW,214,0.0,7.8,100,0.00,,BKN250,0.00,VWS V14.00,2013-09-16 09:40:00,
2013-09-16 06:00:00,59.9,59.9,30.04,SSW,210,4.9,5.8,100,0.00,,BKN250,0.00,VWS V14.00,2013-09-16 10:00:00,
2013-09-16 06:20:00,59.7,59.7,30.05,West,263,0.0,5.3,100,0.00,,BKN250,0.00,VWS V14.00,2013-09-16 10:20:00,
2013-09-16 06:40:00,58.8,58.8,30.05,West,263,0.0,0.0,100,0.00,,BKN250,0.00,VWS V14.00,2013-09-16 10:40:00,
2013-09-16 07:00:00,59.2,59.2,30.05,SSW,197,0.0,6.6,100,0.00,,SCT250,0.00,VWS V14.00,2013-09-16 11:00:00,
2013-09-16 07:20:00,61.1,61.1,30.06,WNW,302,0.0,4.9,100,0.00,,SCT250,0.00,VWS V14.00,2013-09-16 11:20:00,
2013-09-16 07:40:00,59.5,59.5,30.07,WNW,302,0.0,0.0,100,0.00,,SCT250,0.00,VWS V14.00,2013-09-16 11:40:00,
2013-09-16 07:59:00,61.3,61.3,30.08,WNW,302,0.0,0.0,100,0.00,,BKN250,0.00,VWS V14.00,2013-09-16 11:59:00,
2013-09-16 08:20:00,62.2,62.2,30.09,WNW,302,0.0,0.0,100,0.00,,BKN250,0.00,VWS V14.00,2013-09-16 12:20:00,
2013-09-16 08:40:00,62.7,62.7,30.09,WNW,302,0.0,0.0,100,0.00,,BKN250,0.00,VWS V14.00,2013-09-16 12:40:00,
2013-09-16 08:59:00,63.2,63.2,30.10,WNW,302,0.0,0.0,100,0.00,,BKN250,0.00,VWS V14.00,2013-09-16 12:59:00,
2013-09-16 09:20:00,63.4,63.4,30.10,NNW,345,4.3,5.2,100,0.05,,BKN250,0.00,VWS V14.00,2013-09-16 13:20:00,
2013-09-16 09:40:00,62.8,62.8,30.10,NW,311,0.0,6.4,100,0.05,,BKN250,0.01,VWS V14.00,2013-09-16 13:40:00,
2013-09-16 09:59:00,62.8,62.8,30.12,NNW,330,0.0,4.7,100,0.04,,-RA,0.02,VWS V14.00,2013-09-16 13:59:00,
2013-09-16 10:20:00,62.5,62.5,30.12,NNW,329,0.0,2.7,100,0.03,,-RA,0.02,VWS V14.00,2013-09-16 14:20:00,
2013-09-16 10:40:00,62.3,62.3,30.13,WNW,302,0.0,4.8,100,0.02,,-RA,0.02,VWS V14.00,2013-09-16 14:40:00,
2013-09-16 11:00:00,62.8,62.8,30.12,WNW,302,0.0,0.0,100,0.02,,-RA,0.03,VWS V14.00,2013-09-16 15:00:00,
2013-09-16 11:20:00,61.5,61.5,30.13,WNW,302,0.0,0.0,100,0.02,,-RA,0.03,VWS V14.00,2013-09-16 15:20:00,
2013-09-16 11:40:00,64.9,64.9,30.13,WNW,292,0.0,5.0,100,0.01,,-RA,0.03,VWS V14.00,2013-09-16 15:40:00,
2013-09-16 12:00:00,65.6,65.6,30.12,NW,326,3.2,6.2,100,0.01,,-RA,0.03,VWS V14.00,2013-09-16 16:00:00,
2013-09-16 12:20:00,66.3,65.8,30.13,WNW,301,3.2,6.6,98,0.01,,-RA,0.03,VWS V14.00,2013-09-16 16:20:00,
2013-09-16 12:40:00,66.4,64.5,30.12,WNW,283,0.0,3.4,94,0.00,,-RA,0.03,VWS V14.00,2013-09-16 16:40:00,
2013-09-16 13:00:00,68.1,65.0,30.12,NW,318,0.0,5.9,90,0.00,,BKN250,0.03,VWS V14.00,2013-09-16 17:00:00,
2013-09-16 13:20:00,68.2,63.4,30.12,NW,309,1.5,10.5,84,0.00,,BKN250,0.03,VWS V14.00,2013-09-16 17:20:00,
2013-09-16 13:39:00,68.5,62.7,30.11,NNE,32,0.0,5.2,82,0.00,,BKN250,0.03,VWS V14.00,2013-09-16 17:39:00,
2013-09-16 14:00:00,70.4,61.5,30.11,NNW,339,0.0,9.9,73,0.00,,BKN250,0.03,VWS V14.00,2013-09-16 18:00:00,
2013-09-16 14:20:00,70.5,59.4,30.11,WNW,301,0.0,6.4,68,0.00,,BKN250,0.03,VWS V14.00,2013-09-16 18:20:00,
2013-09-16 14:39:00,71.6,59.0,30.11,NNE,20,0.0,5.8,65,0.00,,BKN250,0.03,VWS V14.00,2013-09-16 18:39:00,
2013-09-16 15:00:00,72.6,59.1,30.10,NW,326,4.5,10.1,62,0.00,,BKN250,0.03,VWS V14.00,2013-09-16 19:00:00,
2013-09-16 15:19:00,72.3,58.6,30.10,NNW,346,0.0,7.0,62,0.00,,BKN250,0.03,VWS V14.00,2013-09-16 19:19:00,
2013-09-16 15:39:00,71.5,59.0,30.10,WNW,288,4.3,9.3,65,0.00,,BKN250,0.03,VWS V14.00,2013-09-16 19:39:00,
2013-09-16 16:00:00,71.5,59.3,30.10,WNW,298,4.6,13.2,66,0.00,,BKN250,0.03,VWS V14.00,2013-09-16 20:00:00,
2013-09-16 16:20:00,72.3,58.1,30.11,NW,325,1.6,7.6,61,0.00,,BKN250,0.03,VWS V14.00,2013-09-16 20:20:00,
2013-09-16 16:39:00,71.2,58.2,30.10,West,277,0.0,9.5,63,0.00,,BKN250,0.03,VWS V14.00,2013-09-16 20:39:00,
2013-09-16 17:00:00,70.1,58.1,30.11,NW,315,2.5,6.8,66,0.00,,BKN250,0.03,VWS V14.00,2013-09-16 21:00:00,
2013-09-16 17:20:00,70.5,59.3,30.11,West,276,0.0,3.2,68,0.00,,BKN250,0.03,VWS V14.00,2013-09-16 21:20:00,
2013-09-16 17:39:00,70.1,58.7,30.11,WNW,298,10.1,10.1,67,0.00,,BKN250,0.03,VWS V14.00,2013-09-16 21:39:00,
2013-09-16 18:00:00,70.2,57.6,30.12,NW,305,4.3,10.6,64,0.00,,BKN250,0.03,VWS V14.00,2013-09-16 22:00:00,
2013-09-16 18:20:00,69.5,57.4,30.13,North,11,0.0,6.2,65,0.00,,BKN250,0.03,VWS V14.00,2013-09-16 22:20:00,
2013-09-16 18:39:00,67.4,56.2,30.13,North,356,0.0,4.5,67,0.00,,BKN250,0.03,VWS V14.00,2013-09-16 22:39:00,
2013-09-16 19:00:00,67.2,58.2,30.14,NW,319,0.0,2.9,73,0.00,,BKN250,0.03,VWS V14.00,2013-09-16 23:00:00,
2013-09-16 19:20:00,64.4,58.3,30.14,NW,319,0.0,1.3,81,0.00,,BKN250,0.03,VWS V14.00,2013-09-16 23:20:00,
2013-09-16 19:39:00,64.6,60.2,30.15,NW,319,0.0,0.0,86,0.00,,BKN250,0.03,VWS V14.00,2013-09-16 23:39:00,
2013-09-16 20:00:00,62.5,59.6,30.16,NW,319,0.0,0.0,90,0.00,,SCT075,0.03,VWS V14.00,2013-09-17 00:00:00,
2013-09-16 20:20:00,61.5,59.2,30.16,NW,319,0.0,0.0,92,0.00,,SCT075,0.03,VWS V14.00,2013-09-17 00:20:00,
2013-09-16 20:39:00,60.6,58.8,30.17,NW,319,0.0,0.0,94,0.00,,SCT075,0.03,VWS V14.00,2013-09-17 00:39:00,
2013-09-16 20:59:00,59.6,58.3,30.18,NW,319,0.0,0.0,96,0.00,,SCT075,0.03,VWS V14.00,2013-09-17 00:59:00,
2013-09-16 21:20:00,58.0,57.3,30.19,NW,319,0.0,0.0,98,0.00,,SCT075,0.03,VWS V14.00,2013-09-17 01:20:00,
2013-09-16 21:42:00,58.2,57.9,30.20,NW,319,0.0,0.0,99,0.00,,SCT075,0.03,VWS V14.00,2013-09-17 01:42:00,
2013-09-16 21:59:00,57.4,57.4,30.20,NW,319,0.0,0.0,100,0.00,,SCT075,0.03,VWS V14.00,2013-09-17 01:59:00,
2013-09-16 22:20:00,56.1,56.1,30.20,NW,319,0.0,0.0,100,0.00,,SCT075,0.03,VWS V14.00,2013-09-17 02:20:00,
2013-09-16 22:40:00,53.7,53.7,30.21,NW,319,0.0,0.0,100,0.00,,SCT075,0.03,VWS V14.00,2013-09-17 02:40:00,
2013-09-16 22:59:00,55.4,55.4,30.22,NW,319,0.0,0.0,100,0.00,,SCT080,0.03,VWS V14.00,2013-09-17 02:59:00,
2013-09-16 23:20:00,54.9,54.9,30.23,NW,319,0.0,0.0,100,0.00,,SCT080,0.03,VWS V14.00,2013-09-17 03:20:00,
2013-09-16 23:40:00,54.2,54.2,30.23,NW,319,0.0,0.0,100,0.00,,SCT080,0.03,VWS V14.00,2013-09-17 03:40:00,